< < Back
Terminal Aerodrome Forecast


Current Version              Previous Versions:   1  2  3  4  5  6  7  8  9  

Terminal Aerodrome Forecast

785
FTUS42 KFFC 260940 AAA
TAFCSG
TAF AMD
KCSG 260940Z 2610/2706 29007KT P6SM SCT020 BKN060
      TEMPO 2610/2612 BKN020
     FM261200 30010KT P6SM BKN020
     FM261600 30012G20KT P6SM BKN040
     FM261900 30014G24KT P6SM SCT050
     FM270000 31010KT P6SM FEW100 SCT250=

Latest METAR

670
SAUS70 KWBC 261600 RRA
MTRCSG
METAR KCSG 261551Z 31011G21KT 10SM BKN027 OVC034 08/02 A2992 RMK AO2
SLP130 T00830022


USA.gov is the U.S. government's official web portal to all federal, state and local government web resources and services.